createdAt,value
2023-09-27T00:01:57.420Z,89.62
2023-09-27T00:04:24.898Z,89.59
2023-09-27T00:06:52.214Z,89.75
2023-09-27T00:09:19.497Z,89.57
2023-09-27T00:11:46.869Z,89.46
2023-09-27T00:14:15.477Z,89.46
2023-09-27T00:16:43.091Z,89.68
2023-09-27T00:19:12.060Z,89.76
2023-09-27T00:21:39.400Z,89.95
2023-09-27T00:24:07.330Z,89.96
2023-09-27T00:26:34.751Z,89.90
2023-09-27T00:29:02.440Z,90.23
2023-09-27T00:31:30.780Z,90.21
2023-09-27T00:33:58.435Z,90.05
2023-09-27T00:36:25.907Z,89.57
2023-09-27T00:38:53.438Z,89.48
2023-09-27T00:41:21.744Z,89.65
2023-09-27T00:43:49.266Z,89.84
2023-09-27T00:46:17.572Z,89.91
2023-09-27T00:48:44.941Z,89.87
2023-09-27T00:51:12.284Z,89.88
2023-09-27T00:53:39.839Z,90.30
2023-09-27T00:56:07.634Z,90.02
2023-09-27T00:58:37.064Z,89.68
2023-09-27T01:01:04.460Z,89.66
2023-09-27T01:03:32.711Z,89.88
2023-09-27T01:06:00.211Z,90.07
2023-09-27T01:08:27.765Z,90.23
2023-09-27T01:10:55.260Z,90.29
2023-09-27T01:13:22.818Z,90.34
2023-09-27T01:15:50.430Z,90.89
2023-09-27T01:18:18.111Z,90.94
2023-09-27T01:20:45.554Z,90.96
2023-09-27T01:23:13.020Z,91.27
2023-09-27T01:25:40.445Z,91.45
2023-09-27T01:28:11.518Z,91.10
2023-09-27T01:30:39.406Z,90.73
2023-09-27T01:33:08.352Z,90.54
2023-09-27T01:35:40.207Z,90.57
2023-09-27T01:38:09.177Z,90.33
2023-09-27T01:40:38.748Z,90.23
2023-09-27T01:43:06.184Z,90.10
2023-09-27T01:45:33.706Z,89.77
2023-09-27T01:48:01.873Z,89.77
2023-09-27T01:50:30.071Z,90.09
2023-09-27T01:52:58.883Z,90.30
2023-09-27T01:55:26.355Z,90.65
2023-09-27T01:57:54.173Z,90.88
2023-09-27T02:00:21.607Z,90.64
2023-09-27T02:02:55.194Z,90.70
2023-09-27T02:05:23.182Z,90.70
2023-09-27T02:07:50.914Z,90.52
2023-09-27T02:10:18.547Z,90.18
2023-09-27T02:12:46.104Z,89.80
2023-09-27T02:15:14.092Z,90.04
2023-09-27T02:17:41.658Z,90.14
2023-09-27T02:20:14.330Z,90.21
2023-09-27T02:22:42.452Z,90.41
2023-09-27T02:25:11.172Z,90.32
2023-09-27T02:27:39.209Z,90.51
2023-09-27T02:30:08.925Z,90.32
2023-09-27T02:32:36.740Z,90.17
2023-09-27T02:35:05.967Z,89.66
2023-09-27T02:37:33.475Z,89.28
2023-09-27T02:40:01.020Z,89.10
2023-09-27T02:42:28.325Z,89.74
2023-09-27T02:44:55.624Z,90.28
2023-09-27T02:47:22.951Z,90.62
2023-09-27T02:49:50.560Z,90.87
2023-09-27T02:52:18.935Z,90.93
2023-09-27T02:54:46.856Z,91.17
2023-09-27T02:57:14.522Z,91.25
2023-09-27T02:59:42.448Z,91.06
2023-09-27T03:02:09.972Z,91.01
2023-09-27T03:04:37.456Z,90.77
2023-09-27T03:07:10.022Z,90.81
2023-09-27T03:09:40.450Z,90.60
2023-09-27T03:12:08.083Z,90.75
2023-09-27T03:14:35.838Z,90.72
2023-09-27T03:17:03.465Z,90.46
2023-09-27T03:19:31.143Z,90.42
2023-09-27T03:21:58.585Z,90.33
2023-09-27T03:24:28.033Z,90.51
2023-09-27T03:26:55.524Z,90.68
2023-09-27T03:29:23.280Z,90.66
2023-09-27T03:31:50.846Z,90.32
2023-09-27T03:34:18.404Z,90.13
2023-09-27T03:36:45.756Z,90.10
2023-09-27T03:39:13.317Z,90.30
2023-09-27T03:41:40.702Z,90.51
2023-09-27T03:44:08.279Z,90.64
2023-09-27T03:46:35.833Z,90.58
2023-09-27T03:49:03.303Z,90.80
2023-09-27T03:51:30.803Z,91.22
2023-09-27T03:53:58.192Z,90.77
2023-09-27T03:56:25.779Z,90.50
2023-09-27T03:58:53.572Z,90.69
2023-09-27T04:01:21.385Z,90.77
2023-09-27T04:03:49.132Z,90.91
2023-09-27T04:06:16.591Z,90.57
2023-09-27T04:08:44.023Z,90.24
2023-09-27T04:11:11.577Z,89.68
2023-09-27T04:13:38.962Z,89.74
2023-09-27T04:16:06.351Z,89.80
2023-09-27T04:18:34.027Z,89.58
2023-09-27T04:21:12.245Z,89.83
2023-09-27T04:23:39.823Z,89.82
2023-09-27T04:26:07.772Z,90.05
2023-09-27T04:28:35.274Z,90.46
2023-09-27T04:31:03.285Z,90.10
2023-09-27T04:33:30.737Z,89.98
2023-09-27T04:35:58.097Z,90.25
2023-09-27T04:38:25.599Z,90.52
2023-09-27T04:40:53.158Z,90.14
2023-09-27T04:43:20.453Z,89.99
2023-09-27T04:45:50.289Z,89.99
2023-09-27T04:48:18.803Z,90.18
2023-09-27T04:50:46.127Z,90.18
2023-09-27T04:53:13.487Z,90.26
2023-09-27T04:55:40.866Z,90.17
2023-09-27T04:58:08.220Z,90.43
2023-09-27T05:00:35.713Z,90.67
2023-09-27T05:03:04.054Z,90.75
2023-09-27T05:05:31.554Z,90.36
2023-09-27T05:07:59.497Z,90.27
2023-09-27T05:10:27.349Z,90.34
2023-09-27T05:12:54.734Z,90.32
2023-09-27T05:15:22.093Z,90.18
2023-09-27T05:17:49.560Z,89.83
2023-09-27T05:20:17.315Z,89.81
2023-09-27T05:22:45.169Z,89.58
2023-09-27T05:25:12.954Z,89.56
2023-09-27T05:27:40.538Z,89.07
2023-09-27T05:30:14.597Z,89.09
2023-09-27T05:32:45.216Z,89.26
2023-09-27T05:35:12.847Z,89.14
2023-09-27T05:37:41.805Z,89.14
2023-09-27T05:40:12.123Z,88.87
2023-09-27T05:42:40.459Z,88.50
2023-09-27T05:45:13.141Z,88.39
2023-09-27T05:47:41.289Z,88.06
2023-09-27T05:50:15.343Z,87.78
2023-09-27T05:52:47.553Z,87.32
2023-09-27T05:55:17.212Z,86.86
2023-09-27T05:57:45.639Z,86.61
2023-09-27T06:00:22.840Z,85.68
2023-09-27T06:02:50.390Z,85.49
2023-09-27T06:05:17.911Z,85.18
2023-09-27T06:07:45.412Z,85.02
2023-09-27T06:10:12.750Z,84.51
2023-09-27T06:12:40.217Z,83.97
2023-09-27T06:15:08.292Z,84.00
2023-09-27T06:17:35.702Z,83.68
2023-09-27T06:20:10.154Z,83.27
2023-09-27T06:22:37.640Z,82.90
2023-09-27T06:25:05.876Z,82.61
2023-09-27T06:27:33.197Z,82.13
2023-09-27T06:30:00.691Z,81.86
2023-09-27T06:32:28.256Z,81.35
2023-09-27T06:34:56.021Z,81.07
2023-09-27T06:37:23.814Z,80.83
2023-09-27T06:39:51.178Z,80.77
2023-09-27T06:42:20.479Z,80.30
2023-09-27T06:44:48.058Z,79.56
2023-09-27T06:47:15.986Z,79.28
2023-09-27T06:49:43.407Z,78.93
2023-09-27T06:52:10.790Z,78.46
2023-09-27T06:54:39.181Z,78.11
2023-09-27T06:57:06.523Z,77.92
2023-09-27T06:59:33.913Z,77.62
2023-09-27T07:02:01.419Z,77.39
2023-09-27T07:04:28.868Z,77.28
2023-09-27T07:06:56.270Z,76.95
2023-09-27T07:09:24.044Z,76.65
2023-09-27T07:11:51.414Z,76.65
2023-09-27T07:14:21.197Z,76.38
2023-09-27T07:17:00.369Z,76.22
2023-09-27T07:19:32.600Z,75.94
2023-09-27T07:22:02.470Z,75.28
2023-09-27T07:24:31.368Z,75.10
2023-09-27T07:26:58.909Z,74.62
2023-09-27T07:29:26.560Z,73.99
2023-09-27T07:31:54.795Z,73.60
2023-09-27T07:34:22.153Z,73.37
2023-09-27T07:36:49.498Z,73.00
2023-09-27T07:39:17.590Z,72.82
2023-09-27T07:41:45.836Z,72.49
2023-09-27T07:44:13.970Z,72.05
2023-09-27T07:46:42.201Z,71.62
2023-09-27T07:49:09.642Z,71.25
2023-09-27T07:51:36.996Z,70.91
2023-09-27T07:54:10.418Z,70.55
2023-09-27T07:56:41.487Z,70.39
2023-09-27T07:59:09.162Z,69.97
2023-09-27T08:01:38.581Z,69.82
2023-09-27T08:04:13.580Z,69.37
2023-09-27T08:06:41.284Z,68.88
2023-09-27T08:09:14.703Z,68.31
2023-09-27T08:11:45.499Z,68.16
2023-09-27T08:14:15.338Z,67.97
2023-09-27T08:16:44.915Z,67.48
2023-09-27T08:19:13.973Z,66.77
2023-09-27T08:21:41.284Z,66.07
2023-09-27T08:24:08.787Z,65.61
2023-09-27T08:26:36.711Z,64.89
2023-09-27T08:29:06.523Z,64.36
2023-09-27T08:31:37.386Z,63.78
2023-09-27T08:34:05.373Z,63.45
2023-09-27T08:36:32.771Z,63.14
2023-09-27T08:39:00.334Z,62.84
2023-09-27T08:41:28.059Z,62.61
2023-09-27T08:43:55.377Z,61.88
2023-09-27T08:46:22.792Z,61.34
2023-09-27T08:48:50.766Z,60.84
2023-09-27T08:51:18.259Z,60.34
2023-09-27T08:53:46.240Z,59.65
2023-09-27T08:56:17.648Z,59.06
2023-09-27T08:58:45.427Z,58.17
2023-09-27T09:01:12.822Z,56.89
2023-09-27T09:03:42.446Z,55.76
2023-09-27T09:06:12.768Z,54.15
2023-09-27T09:08:44.364Z,52.82
2023-09-27T09:11:12.632Z,51.73
2023-09-27T09:14:05.312Z,50.23
2023-09-27T09:16:41.384Z,48.63
2023-09-27T09:22:12.917Z,45.37
2023-09-27T09:24:45.098Z,44.91
2023-09-27T09:27:17.383Z,43.96
2023-09-27T09:29:46.635Z,43.41
2023-09-27T09:32:17.149Z,42.67
2023-09-27T09:34:46.479Z,42.21
2023-09-27T09:37:24.687Z,41.76
2023-09-27T09:39:53.516Z,41.09
2023-09-27T09:42:34.697Z,40.56
2023-09-27T09:45:09.626Z,39.28
2023-09-27T09:47:37.946Z,38.82
2023-09-27T09:50:07.728Z,38.98
2023-09-27T09:52:37.014Z,38.75
2023-09-27T09:55:17.739Z,37.77
2023-09-27T09:57:55.201Z,37.55
2023-09-27T10:00:27.880Z,37.01
2023-09-27T10:03:03.697Z,36.72
2023-09-27T10:05:39.574Z,36.06
2023-09-27T10:08:07.594Z,35.46
2023-09-27T10:10:35.798Z,34.73
2023-09-27T10:13:05.708Z,34.44
2023-09-27T10:15:36.051Z,33.91
2023-09-27T10:18:22.769Z,33.43
2023-09-27T10:21:03.408Z,33.23
2023-09-27T10:23:36.130Z,32.98
2023-09-27T10:26:28.811Z,32.72
2023-09-27T10:29:05.898Z,32.32
2023-09-27T10:31:34.836Z,32.14
2023-09-27T10:34:02.345Z,31.73
2023-09-27T10:36:31.211Z,31.33
2023-09-27T10:38:58.593Z,31.30
2023-09-27T10:41:45.518Z,31.29
2023-09-27T10:45:58.813Z,31.42
2023-09-27T10:48:26.243Z,31.42
2023-09-27T10:50:59.785Z,31.42
2023-09-27T10:53:28.125Z,31.36
2023-09-27T10:55:55.809Z,31.28
2023-09-27T10:58:23.236Z,31.31
2023-09-27T11:00:56.208Z,31.06
2023-09-27T11:03:27.163Z,30.59
2023-09-27T11:05:54.751Z,30.28
2023-09-27T11:08:25.857Z,30.30
2023-09-27T11:10:54.439Z,30.13
2023-09-27T11:13:22.794Z,29.72
2023-09-27T11:15:50.489Z,29.54
2023-09-27T11:18:18.131Z,29.38
2023-09-27T11:20:45.739Z,29.21
2023-09-27T11:23:13.537Z,28.92
2023-09-27T11:25:43.993Z,28.47
2023-09-27T11:28:18.740Z,28.23
2023-09-27T11:30:46.287Z,28.11
2023-09-27T11:33:18.464Z,27.91
2023-09-27T11:35:52.718Z,27.98
2023-09-27T11:38:21.399Z,27.76
2023-09-27T11:40:49.982Z,27.14
2023-09-27T11:43:18.875Z,26.89
2023-09-27T11:45:50.248Z,26.90
2023-09-27T11:48:18.356Z,26.50
2023-09-27T11:50:45.930Z,26.39
2023-09-27T11:53:14.081Z,26.31
2023-09-27T11:55:42.582Z,26.13
2023-09-27T11:58:10.315Z,25.91
2023-09-27T12:00:37.785Z,25.88
2023-09-27T12:03:06.234Z,25.90
2023-09-27T12:05:38.940Z,25.89
2023-09-27T12:08:06.924Z,25.88
2023-09-27T12:10:34.397Z,26.05
2023-09-27T12:13:01.842Z,25.96
2023-09-27T12:15:29.459Z,25.77
2023-09-27T12:17:56.953Z,25.59
2023-09-27T12:20:39.379Z,25.40
2023-09-27T12:23:10.506Z,25.23
2023-09-27T12:25:38.948Z,25.36
2023-09-27T12:28:06.685Z,25.37
2023-09-27T12:30:34.221Z,25.36
2023-09-27T12:33:02.049Z,25.26
2023-09-27T12:35:29.572Z,25.15
2023-09-27T12:37:57.089Z,25.09
2023-09-27T12:40:25.586Z,25.04
2023-09-27T12:42:52.993Z,24.74
2023-09-27T12:45:20.385Z,24.45
2023-09-27T12:47:48.278Z,24.54
2023-09-27T12:50:17.348Z,24.61
2023-09-27T12:52:44.919Z,24.48
2023-09-27T12:55:12.807Z,24.34
2023-09-27T12:57:40.265Z,24.53
2023-09-27T13:00:10.334Z,24.46
2023-09-27T13:02:38.416Z,24.60
2023-09-27T13:05:06.370Z,24.72
2023-09-27T13:07:34.069Z,24.93
2023-09-27T13:10:02.556Z,25.51
2023-09-27T13:12:30.203Z,26.43
2023-09-27T13:14:57.939Z,27.52
2023-09-27T13:17:25.652Z,28.57
2023-09-27T13:19:53.743Z,29.30
2023-09-27T13:22:21.786Z,30.17
2023-09-27T13:24:49.292Z,30.94
2023-09-27T13:27:16.631Z,31.81
2023-09-27T13:29:44.429Z,32.53
2023-09-27T13:32:14.115Z,33.27
2023-09-27T13:34:41.741Z,34.03
2023-09-27T13:37:09.169Z,34.41
2023-09-27T13:39:36.608Z,35.31
2023-09-27T13:42:04.616Z,35.69
2023-09-27T13:44:32.273Z,36.58
2023-09-27T13:46:59.748Z,37.12
2023-09-27T13:49:27.115Z,37.43
2023-09-27T13:51:54.521Z,38.00
2023-09-27T13:54:21.953Z,38.57
2023-09-27T13:56:49.371Z,39.24
2023-09-27T13:59:16.910Z,39.42
2023-09-27T14:01:44.418Z,39.84
2023-09-27T14:04:11.852Z,40.33
2023-09-27T14:06:39.393Z,41.18
2023-09-27T14:09:06.824Z,41.78
2023-09-27T14:11:34.395Z,42.70
2023-09-27T14:14:01.756Z,43.33
2023-09-27T14:16:29.335Z,43.50
2023-09-27T14:18:56.999Z,44.28
2023-09-27T14:21:24.461Z,44.97
2023-09-27T14:23:52.762Z,45.33
2023-09-27T14:26:21.619Z,45.73
2023-09-27T14:28:49.250Z,46.35
2023-09-27T14:31:18.145Z,46.81
2023-09-27T14:33:45.726Z,47.04
2023-09-27T14:36:13.591Z,47.47
2023-09-27T14:38:41.148Z,47.76
2023-09-27T14:41:09.936Z,48.09
2023-09-27T14:43:38.504Z,48.32
2023-09-27T14:46:12.975Z,48.64
2023-09-27T14:48:40.643Z,49.09
2023-09-27T14:51:12.776Z,49.36
2023-09-27T14:53:42.509Z,49.72
2023-09-27T14:56:10.829Z,49.93
2023-09-27T14:58:38.454Z,50.45
2023-09-27T15:01:06.080Z,50.83
2023-09-27T15:03:33.811Z,51.34
2023-09-27T15:06:02.747Z,51.78
2023-09-27T15:08:31.056Z,52.10
2023-09-27T15:10:58.480Z,52.63
2023-09-27T15:13:27.096Z,52.97
2023-09-27T15:15:54.666Z,53.31
2023-09-27T15:18:24.253Z,53.79
2023-09-27T15:20:53.517Z,54.04
2023-09-27T15:23:20.909Z,54.32
2023-09-27T15:25:50.071Z,54.54
2023-09-27T15:28:17.783Z,54.86
2023-09-27T15:30:45.244Z,54.93
2023-09-27T15:33:12.724Z,55.23
2023-09-27T15:35:40.296Z,55.28
2023-09-27T15:38:08.011Z,55.49
2023-09-27T15:40:35.484Z,55.52
2023-09-27T15:43:03.224Z,55.80
2023-09-27T15:45:31.226Z,55.73
2023-09-27T15:47:59.118Z,55.88
2023-09-27T15:50:27.275Z,56.02
2023-09-27T15:52:54.734Z,56.22
2023-09-27T15:55:22.251Z,56.63
2023-09-27T15:57:50.187Z,56.53
2023-09-27T16:00:17.720Z,56.75
2023-09-27T16:02:46.137Z,57.18
2023-09-27T16:05:14.039Z,57.76
2023-09-27T16:07:41.685Z,58.55
2023-09-27T16:10:13.206Z,59.01
2023-09-27T16:12:42.489Z,59.43
2023-09-27T16:15:10.362Z,59.87
2023-09-27T16:17:40.231Z,60.25
2023-09-27T16:20:09.420Z,60.38
2023-09-27T16:22:36.995Z,60.55
2023-09-27T16:25:06.307Z,60.67
2023-09-27T16:27:34.019Z,60.92
2023-09-27T16:30:01.614Z,61.37
2023-09-27T16:32:30.343Z,61.77
2023-09-27T16:34:58.134Z,62.15
2023-09-27T16:37:25.696Z,62.28
2023-09-27T16:39:53.494Z,62.53
2023-09-27T16:42:21.001Z,62.64
2023-09-27T16:44:49.173Z,63.05
2023-09-27T16:47:16.651Z,63.44
2023-09-27T16:49:44.639Z,64.08
2023-09-27T16:52:12.268Z,64.38
2023-09-27T16:54:39.924Z,64.70
2023-09-27T16:57:08.157Z,65.10
2023-09-27T16:59:37.297Z,65.16
2023-09-27T17:02:04.816Z,65.31
2023-09-27T17:04:33.680Z,65.82
2023-09-27T17:07:01.206Z,66.08
2023-09-27T17:09:28.597Z,66.19
2023-09-27T17:11:56.561Z,65.64
2023-09-27T17:14:24.368Z,65.45
2023-09-27T17:16:52.434Z,65.33
2023-09-27T17:19:27.060Z,65.43
2023-09-27T17:21:55.228Z,65.29
2023-09-27T17:24:22.970Z,65.14
2023-09-27T17:26:50.692Z,65.01
2023-09-27T17:29:18.274Z,64.85
2023-09-27T17:31:48.077Z,64.65
2023-09-27T17:34:16.554Z,64.37
2023-09-27T17:36:43.976Z,64.09
2023-09-27T17:39:11.433Z,63.78
2023-09-27T17:41:38.805Z,63.71
2023-09-27T17:44:06.460Z,63.52
2023-09-27T17:46:34.198Z,63.22
2023-09-27T17:49:02.419Z,63.04
2023-09-27T17:51:30.637Z,62.80
2023-09-27T17:53:59.792Z,62.54
2023-09-27T17:56:28.274Z,62.30
2023-09-27T17:58:56.901Z,61.99
2023-09-27T18:01:26.116Z,61.74
2023-09-27T18:03:54.025Z,61.50
2023-09-27T18:06:22.681Z,61.38
2023-09-27T18:08:50.112Z,61.28
2023-09-27T18:11:18.035Z,61.47
2023-09-27T18:13:45.524Z,61.74
2023-09-27T18:16:19.721Z,61.81
2023-09-27T18:18:48.854Z,62.51
2023-09-27T18:21:20.530Z,62.84
2023-09-27T18:23:50.139Z,62.85
2023-09-27T18:26:17.634Z,62.95
2023-09-27T18:28:45.269Z,63.21
2023-09-27T18:31:12.990Z,63.42
2023-09-27T18:33:41.186Z,63.26
2023-09-27T18:36:08.908Z,63.34
2023-09-27T18:38:36.440Z,63.20
2023-09-27T18:41:05.014Z,62.99
2023-09-27T18:43:32.570Z,63.30
2023-09-27T18:46:00.609Z,63.56
2023-09-27T18:48:28.358Z,63.30
2023-09-27T18:50:57.288Z,62.99
2023-09-27T18:53:24.783Z,62.88
2023-09-27T18:55:52.407Z,62.65
2023-09-27T18:58:19.907Z,62.67
2023-09-27T19:00:48.571Z,62.59
2023-09-27T19:03:16.802Z,62.93
2023-09-27T19:05:44.179Z,63.30
2023-09-27T19:08:11.782Z,63.34
2023-09-27T19:10:39.383Z,63.54
2023-09-27T19:13:07.003Z,63.70
2023-09-27T19:15:34.783Z,63.64
2023-09-27T19:18:02.534Z,63.80
2023-09-27T19:20:30.055Z,63.77
2023-09-27T19:22:58.671Z,63.56
2023-09-27T19:25:26.399Z,64.10
2023-09-27T19:27:54.159Z,64.33
2023-09-27T19:30:22.156Z,64.48
2023-09-27T19:32:49.850Z,64.49
2023-09-27T19:35:17.529Z,64.76
2023-09-27T19:37:45.019Z,64.70
2023-09-27T19:40:15.304Z,64.84
2023-09-27T19:42:44.402Z,65.01
2023-09-27T19:45:11.870Z,65.30
2023-09-27T19:47:39.587Z,65.45
2023-09-27T19:50:10.672Z,65.61
2023-09-27T19:52:41.082Z,65.67
2023-09-27T19:55:11.647Z,65.81
2023-09-27T19:57:39.039Z,65.95
2023-09-27T20:00:11.738Z,66.28
2023-09-27T20:02:45.559Z,66.53
2023-09-27T20:05:13.265Z,66.69
2023-09-27T20:07:46.761Z,66.56
2023-09-27T20:10:16.068Z,66.50
2023-09-27T20:12:43.560Z,67.02
2023-09-27T20:15:13.372Z,67.25
2023-09-27T20:17:41.027Z,66.80
2023-09-27T20:20:09.331Z,66.89
2023-09-27T20:22:36.851Z,66.71
2023-09-27T20:25:05.937Z,66.60
2023-09-27T20:27:33.583Z,66.22
2023-09-27T20:30:00.954Z,66.12
2023-09-27T20:32:28.922Z,66.21
2023-09-27T20:34:56.842Z,66.41
2023-09-27T20:37:24.440Z,66.65
2023-09-27T20:39:52.095Z,66.86
2023-09-27T20:42:21.612Z,66.98
2023-09-27T20:44:49.055Z,67.17
2023-09-27T20:47:17.881Z,67.32
2023-09-27T20:49:45.639Z,67.37
2023-09-27T20:52:14.025Z,67.30
2023-09-27T20:54:45.849Z,67.35
2023-09-27T20:57:13.455Z,67.39
2023-09-27T20:59:41.271Z,67.28
2023-09-27T21:02:08.630Z,66.74
2023-09-27T21:04:36.011Z,66.71
2023-09-27T21:07:04.465Z,66.73
2023-09-27T21:09:31.970Z,66.60
2023-09-27T21:12:00.430Z,66.79
2023-09-27T21:14:27.965Z,67.11
2023-09-27T21:16:55.460Z,67.29
2023-09-27T21:19:23.291Z,67.32
2023-09-27T21:21:50.692Z,67.55
2023-09-27T21:24:18.133Z,67.85
2023-09-27T21:26:45.584Z,67.59
2023-09-27T21:29:13.714Z,67.57
2023-09-27T21:31:44.245Z,67.75
2023-09-27T21:34:13.874Z,67.62
2023-09-27T21:36:41.835Z,67.41
2023-09-27T21:39:10.111Z,67.24
2023-09-27T21:41:37.450Z,67.24
2023-09-27T21:44:05.181Z,67.23
2023-09-27T21:46:32.738Z,67.12
2023-09-27T21:49:00.167Z,67.21
2023-09-27T21:51:27.598Z,67.10
2023-09-27T21:53:55.378Z,67.32
2023-09-27T21:56:23.228Z,67.64
2023-09-27T21:58:50.713Z,67.85
2023-09-27T22:01:18.225Z,67.60
2023-09-27T22:03:45.761Z,66.83
2023-09-27T22:06:14.601Z,66.69
2023-09-27T22:08:54.130Z,66.71
2023-09-27T22:11:22.410Z,66.67
2023-09-27T22:13:49.892Z,66.43
2023-09-27T22:16:17.515Z,66.43
2023-09-27T22:18:51.116Z,66.76
2023-09-27T22:21:26.046Z,67.02
2023-09-27T22:23:57.330Z,66.80
2023-09-27T22:26:26.637Z,66.75
2023-09-27T22:28:57.298Z,66.73
2023-09-27T22:31:31.603Z,67.21
2023-09-27T22:34:09.257Z,67.26
2023-09-27T22:36:37.427Z,67.32
2023-09-27T22:39:17.294Z,67.51
2023-09-27T22:41:47.037Z,67.73
2023-09-27T22:44:20.871Z,68.04
2023-09-27T22:46:53.571Z,67.72
2023-09-27T22:49:24.455Z,67.94
2023-09-27T22:51:52.280Z,68.15
2023-09-27T22:54:20.956Z,68.12
2023-09-27T22:56:49.232Z,68.08
2023-09-27T22:59:17.012Z,68.07
2023-09-27T23:04:23.392Z,68.42
2023-09-27T23:07:02.593Z,68.87
2023-09-27T23:09:35.978Z,68.95
2023-09-27T23:12:25.021Z,68.85
2023-09-27T23:15:12.803Z,69.12
2023-09-27T23:17:58.453Z,69.14
2023-09-27T23:20:29.688Z,69.39
2023-09-27T23:22:57.321Z,69.72
2023-09-27T23:25:43.534Z,69.71
2023-09-27T23:29:15.586Z,69.62
2023-09-27T23:31:42.326Z,69.61
2023-09-27T23:34:09.154Z,69.97
2023-09-27T23:36:39.585Z,69.96
2023-09-27T23:39:17.374Z,69.99
2023-09-27T23:41:44.557Z,69.97
2023-09-27T23:44:11.300Z,70.10
2023-09-27T23:46:39.194Z,70.37
2023-09-27T23:49:07.025Z,70.72
2023-09-27T23:51:33.645Z,70.90
2023-09-27T23:54:00.533Z,71.27
2023-09-27T23:56:30.293Z,71.51
2023-09-27T23:59:08.149Z,71.54
